CheckWX is a tool to help pilots better visualize weather data.  It is not intended as a substitute for an official pre-flight weather briefing.

06:40:43 UTC

KARR METAR
Aurora Municipal Airport
Chicago/Aurora, Illinois, USA
Current

24 mins ago

KARR 230617Z AUTO 24012KT 8SM OVC014 16/14 A2984 RMK AO2 T01610139 TSNO
Observed
Apr-23 @ 06:17 UTC
Wind
  • 240° at 12 KTS
Visibility
8 SM
Flight Rules
MVFR
Cloud Levels
  • Overcast at 1,400' AGL
Temperature
16°C / 61°F
Dewpoint
14°C / 57°F
Humidity
88%
Altimeter
29.84" Hg
Pressure
1010.52 hPa
Previous

33 mins ago

KARR 230608Z AUTO 23011KT 9SM BKN016 BKN043 16/14 A2984 RMK AO2 T01610139 TSNO
Observed
Apr-23 @ 06:08 UTC
Wind
  • 230° at 11 KTS
Visibility
9 SM
Flight Rules
MVFR
Cloud Levels
  • Broken at 1,600' AGL
  • Broken at 4,300' AGL
Temperature
16°C / 61°F
Dewpoint
14°C / 57°F
Humidity
88%
Altimeter
29.84" Hg
Pressure
1010.52 hPa
Previous

49 mins ago

KARR 230552Z AUTO 23011G18KT 10SM BKN043 16/14 A2984 RMK AO2 SLP100 60001 T01610139 10194 20161 402610117 53003 TSNO
Observed
Apr-23 @ 05:52 UTC
Wind
  • 230° at 11 KTS
  • Gusting to 18 KTS
Visibility
10 SM
Flight Rules
VFR
Cloud Levels
  • Broken at 4,300' AGL
Temperature
16°C / 61°F
Dewpoint
14°C / 57°F
Humidity
88%
Altimeter
29.84" Hg
Pressure
1010.52 hPa